Bay Harbor, Michigan
Current Conditions -  °F | °C
As of 9:55 AM on Tuesday 21 Oct 2014 (Local Time) from KMGN Reporting Station
Clear Clear  
Wind Chill: 38°   Ceiling: Unl
Heat Index: 44°   Visibility: 10mi
Dew Point: 32°   Wind: 12mph
Humidity: 64%   Direction: 30°NNE
Pressure: 30.16"   Gusts: 17mph
Location:  45.3433°N, 84.8827°W
Report Text: KMGN 211355Z AUTO 03010G15KT 10SM CLR 06/00 A3016 RMK AO2 T00650002
Loading
Personal Weather Stations






























Interactive Weather Map
Tropical Storm Tracking
New forecast layout! Learn more

10-Day Weather Forecast

Advertisements
Track Severe Weather on mobile